createdAt,value
2018-07-28T00:02:26.601Z,5.60
2018-07-28T00:04:53.597Z,5.40
2018-07-28T00:07:20.639Z,5.67
2018-07-28T00:09:47.621Z,5.43
2018-07-28T00:12:14.613Z,5.67
2018-07-28T00:14:41.663Z,5.17
2018-07-28T00:17:08.642Z,5.40
2018-07-28T00:19:36.466Z,5.93
2018-07-28T00:22:04.455Z,6.83
2018-07-28T00:24:31.441Z,6.67
2018-07-28T00:26:58.434Z,7.10
2018-07-28T00:29:25.464Z,6.40
2018-07-28T00:31:52.457Z,7.10
2018-07-28T00:34:19.456Z,7.47
2018-07-28T00:36:47.349Z,7.17
2018-07-28T00:41:52.882Z,7.10
2018-07-28T00:44:20.711Z,7.40
2018-07-28T00:46:47.699Z,6.80
2018-07-28T00:49:14.748Z,6.20
2018-07-28T00:51:41.743Z,5.40
2018-07-28T00:54:08.731Z,4.53
2018-07-28T00:56:35.798Z,5.30
2018-07-28T00:59:02.793Z,4.87
2018-07-28T01:01:29.775Z,4.57
2018-07-28T01:03:57.760Z,5.07
2018-07-28T01:06:25.056Z,5.40
2018-07-28T01:08:52.045Z,5.47
2018-07-28T01:11:19.077Z,5.90
2018-07-28T01:13:46.061Z,6.67
2018-07-28T01:16:14.000Z,6.50
2018-07-28T01:18:41.057Z,6.60
2018-07-28T01:21:08.899Z,7.37
2018-07-28T01:23:35.885Z,6.80
2018-07-28T01:26:02.916Z,6.70
2018-07-28T01:28:29.911Z,6.63
2018-07-28T01:30:56.984Z,6.07
2018-07-28T01:33:24.040Z,6.17
2018-07-28T01:35:51.026Z,6.60
2018-07-28T01:38:18.019Z,6.17
2018-07-28T01:40:45.050Z,6.13
2018-07-28T01:43:12.072Z,6.13
2018-07-28T01:45:39.048Z,5.80
2018-07-28T01:48:06.107Z,6.17
2018-07-28T01:50:33.091Z,6.20
2018-07-28T01:53:00.073Z,5.60
2018-07-28T01:55:27.103Z,6.00
2018-07-28T01:57:54.094Z,5.83
2018-07-28T02:02:59.591Z,6.03
2018-07-28T02:05:26.580Z,5.43
2018-07-28T02:07:53.560Z,5.73
2018-07-28T02:10:20.616Z,5.70
2018-07-28T02:12:47.605Z,6.30
2018-07-28T02:15:14.599Z,6.10
2018-07-28T02:17:41.639Z,5.57
2018-07-28T02:20:08.624Z,5.97
2018-07-28T02:22:35.693Z,5.57
2018-07-28T02:25:02.722Z,5.63
2018-07-28T02:27:29.717Z,5.83
2018-07-28T02:29:56.707Z,5.90
2018-07-28T02:32:23.741Z,5.80
2018-07-28T02:34:50.725Z,5.80
2018-07-28T02:37:17.709Z,5.00
2018-07-28T02:39:45.575Z,5.43
2018-07-28T02:42:12.569Z,6.63
2018-07-28T02:44:39.552Z,6.00
2018-07-28T02:47:06.586Z,5.17
2018-07-28T02:49:33.570Z,5.93
2018-07-28T02:52:01.017Z,5.37
2018-07-28T02:54:28.034Z,5.77
2018-07-28T02:56:55.020Z,6.03
2018-07-28T02:59:22.008Z,5.47
2018-07-28T03:01:49.053Z,5.97
2018-07-28T03:04:16.035Z,5.60
2018-07-28T03:06:43.020Z,6.40
2018-07-28T03:09:10.055Z,6.80
2018-07-28T03:11:37.160Z,7.23
2018-07-28T03:14:04.153Z,6.80
2018-07-28T03:16:31.190Z,6.77
2018-07-28T03:18:58.178Z,6.20
2018-07-28T03:24:05.708Z,7.07
2018-07-28T03:26:32.690Z,6.10
2018-07-28T03:28:59.684Z,5.43
2018-07-28T03:31:26.711Z,5.57
2018-07-28T03:33:53.689Z,5.80
2018-07-28T03:36:20.679Z,6.43
2018-07-28T03:38:47.793Z,6.50
2018-07-28T03:41:14.780Z,6.80
2018-07-28T03:43:41.776Z,5.97
2018-07-28T03:46:08.833Z,6.33
2018-07-28T03:48:35.824Z,6.60
2018-07-28T03:51:02.827Z,6.50
2018-07-28T03:53:29.868Z,7.20
2018-07-28T03:55:56.853Z,9.57
2018-07-28T03:58:23.840Z,8.60
2018-07-28T04:00:50.870Z,7.77
2018-07-28T04:03:17.855Z,7.93
2018-07-28T04:05:44.900Z,7.90
2018-07-28T04:08:12.058Z,7.80
2018-07-28T04:10:39.868Z,7.10
2018-07-28T04:13:06.858Z,7.70
2018-07-28T04:15:33.924Z,6.70
2018-07-28T04:18:01.846Z,7.70
2018-07-28T04:20:28.821Z,6.57
2018-07-28T04:22:55.862Z,6.37
2018-07-28T04:25:23.171Z,6.60
2018-07-28T04:27:50.264Z,7.10
2018-07-28T04:30:17.311Z,6.80
2018-07-28T04:32:45.199Z,7.13
2018-07-28T04:35:12.185Z,7.97
2018-07-28T04:40:17.184Z,6.72
2018-07-28T04:42:44.213Z,6.47
2018-07-28T04:45:11.205Z,6.03
2018-07-28T04:47:38.183Z,6.10
2018-07-28T04:50:05.245Z,5.93
2018-07-28T04:52:32.224Z,5.73
2018-07-28T04:54:59.219Z,7.00
2018-07-28T04:57:26.234Z,7.87
2018-07-28T04:59:53.230Z,8.10
2018-07-28T05:02:20.216Z,7.43
2018-07-28T05:04:47.251Z,8.33
2018-07-28T05:07:14.289Z,8.07
2018-07-28T05:09:41.209Z,7.50
2018-07-28T05:12:08.273Z,7.40
2018-07-28T05:14:35.254Z,7.53
2018-07-28T05:17:02.242Z,6.63
2018-07-28T05:19:29.297Z,6.70
2018-07-28T05:21:56.283Z,6.67
2018-07-28T05:24:23.275Z,7.63
2018-07-28T05:26:51.023Z,7.07
2018-07-28T05:29:18.004Z,7.80
2018-07-28T05:31:44.994Z,7.87
2018-07-28T05:34:12.055Z,8.33
2018-07-28T05:36:39.037Z,7.97
2018-07-28T05:39:06.943Z,7.10
2018-07-28T05:41:33.909Z,7.80
2018-07-28T05:44:00.906Z,7.90
2018-07-28T05:46:27.898Z,7.47
2018-07-28T05:48:54.945Z,6.10
2018-07-28T05:54:03.393Z,7.30
2018-07-28T05:56:30.464Z,7.27
2018-07-28T05:58:57.450Z,7.97
2018-07-28T06:01:24.516Z,7.50
2018-07-28T06:03:51.507Z,6.90
2018-07-28T06:06:19.454Z,7.47
2018-07-28T06:08:46.498Z,7.43
2018-07-28T06:11:13.518Z,6.00
2018-07-28T06:13:40.508Z,6.17
2018-07-28T06:16:07.535Z,6.40
2018-07-28T06:18:34.522Z,6.37
2018-07-28T06:21:01.517Z,6.30
2018-07-28T06:23:28.568Z,6.63
2018-07-28T06:25:55.600Z,6.20
2018-07-28T06:28:22.561Z,5.63
2018-07-28T06:30:49.719Z,5.63
2018-07-28T06:33:17.543Z,5.87
2018-07-28T06:35:44.532Z,5.97
2018-07-28T06:38:11.584Z,6.47
2018-07-28T06:40:38.572Z,6.10
2018-07-28T06:43:05.568Z,6.13
2018-07-28T06:45:32.624Z,6.07
2018-07-28T06:47:59.617Z,5.53
2018-07-28T06:50:26.611Z,6.00
2018-07-28T06:52:53.644Z,5.50
2018-07-28T06:55:20.651Z,6.30
2018-07-28T06:57:47.646Z,5.33
2018-07-28T07:00:14.704Z,6.00
2018-07-28T07:02:41.698Z,5.53
2018-07-28T07:05:08.685Z,5.50
2018-07-28T07:07:35.750Z,5.03
2018-07-28T07:12:43.258Z,5.50
2018-07-28T07:15:10.246Z,4.23
2018-07-28T07:17:37.249Z,5.33
2018-07-28T07:20:04.523Z,5.20
2018-07-28T07:22:31.456Z,5.43
2018-07-28T07:24:58.452Z,4.80
2018-07-28T07:27:25.504Z,4.70
2018-07-28T07:29:52.492Z,5.67
2018-07-28T07:32:19.477Z,5.30
2018-07-28T07:34:46.591Z,4.30
2018-07-28T07:37:13.579Z,5.07
2018-07-28T07:39:40.564Z,4.70
2018-07-28T07:42:08.048Z,4.53
2018-07-28T07:44:35.031Z,4.90
2018-07-28T07:47:02.017Z,5.10
2018-07-28T07:49:29.052Z,5.07
2018-07-28T07:51:56.328Z,5.50
2018-07-28T07:54:23.121Z,4.87
2018-07-28T07:56:50.801Z,5.20
2018-07-28T07:59:17.804Z,5.00
2018-07-28T08:01:44.868Z,5.00
2018-07-28T08:04:11.924Z,5.07
2018-07-28T08:06:38.912Z,4.70
2018-07-28T08:09:05.891Z,4.53
2018-07-28T08:11:32.931Z,5.10
2018-07-28T08:14:00.001Z,4.80
2018-07-28T08:16:27.022Z,5.07
2018-07-28T08:18:54.080Z,4.83
2018-07-28T08:21:21.062Z,5.40
2018-07-28T08:23:48.067Z,5.10
2018-07-28T08:26:15.177Z,4.73
2018-07-28T08:28:42.167Z,4.50
2018-07-28T08:33:47.704Z,4.93
2018-07-28T08:36:14.784Z,5.13
2018-07-28T08:38:41.784Z,4.37
2018-07-28T08:41:08.852Z,5.00
2018-07-28T08:43:35.926Z,4.73
2018-07-28T08:46:02.909Z,4.87
2018-07-28T08:48:29.945Z,4.70
2018-07-28T08:50:57.115Z,4.33
2018-07-28T08:53:24.110Z,4.77
2018-07-28T08:55:52.040Z,4.87
2018-07-28T08:58:19.131Z,3.90
2018-07-28T09:00:46.115Z,4.20
2018-07-28T09:03:13.145Z,4.60
2018-07-28T09:05:40.135Z,4.20
2018-07-28T09:08:07.117Z,4.13
2018-07-28T09:10:34.206Z,4.00
2018-07-28T09:13:01.169Z,4.50
2018-07-28T09:15:28.149Z,4.50
2018-07-28T09:17:55.227Z,3.90
2018-07-28T09:20:22.201Z,4.62
2018-07-28T09:22:49.178Z,4.37
2018-07-28T09:25:16.206Z,4.57
2018-07-28T09:27:43.192Z,3.97
2018-07-28T09:30:10.174Z,4.45
2018-07-28T09:32:37.223Z,4.37
2018-07-28T09:37:43.755Z,4.60
2018-07-28T09:40:10.765Z,4.65
2018-07-28T09:42:38.574Z,4.37
2018-07-28T09:45:05.619Z,4.47
2018-07-28T09:47:32.591Z,4.68
2018-07-28T09:49:59.668Z,4.37
2018-07-28T09:52:26.745Z,4.37
2018-07-28T09:54:53.767Z,4.30
2018-07-28T09:57:20.792Z,4.25
2018-07-28T09:59:47.775Z,4.05
2018-07-28T10:02:14.840Z,4.28
2018-07-28T10:04:42.096Z,3.95
2018-07-28T10:07:09.065Z,4.20
2018-07-28T10:09:36.052Z,3.97
2018-07-28T10:12:03.104Z,4.30
2018-07-28T10:14:30.090Z,4.50
2018-07-28T10:16:57.083Z,3.87
2018-07-28T10:19:24.109Z,3.90
2018-07-28T10:21:51.091Z,3.70
2018-07-28T10:24:18.112Z,4.12
2018-07-28T10:26:45.179Z,3.95
2018-07-28T10:29:12.646Z,3.95
2018-07-28T10:31:39.649Z,4.03
2018-07-28T10:34:06.719Z,3.47
2018-07-28T10:36:33.758Z,3.60
2018-07-28T10:39:00.721Z,3.62
2018-07-28T10:41:27.779Z,3.05
2018-07-28T10:43:54.764Z,3.70
2018-07-28T10:46:21.746Z,3.40
2018-07-28T10:48:48.778Z,3.60
2018-07-28T10:51:15.787Z,4.30
2018-07-28T10:56:21.318Z,3.43
2018-07-28T10:58:48.319Z,3.78
2018-07-28T11:01:15.314Z,3.90
2018-07-28T11:03:42.358Z,3.53
2018-07-28T11:06:09.356Z,4.25
2018-07-28T11:08:36.355Z,3.72
2018-07-28T11:11:03.404Z,4.03
2018-07-28T11:13:31.235Z,3.78
2018-07-28T11:15:58.253Z,3.85
2018-07-28T11:18:25.272Z,4.05
2018-07-28T11:20:52.283Z,3.78
2018-07-28T11:23:19.274Z,3.97
2018-07-28T11:25:47.280Z,3.65
2018-07-28T11:28:14.220Z,3.95
2018-07-28T11:30:42.105Z,3.62
2018-07-28T11:33:21.042Z,2.87
2018-07-28T11:35:59.924Z,3.03
2018-07-28T11:41:30.606Z,2.80
2018-07-28T11:46:45.297Z,3.00
2018-07-28T11:49:12.376Z,3.10
2018-07-28T11:51:39.378Z,2.83
2018-07-28T11:54:07.202Z,3.47
2018-07-28T11:56:34.270Z,3.08
2018-07-28T11:59:01.281Z,3.47
2018-07-28T12:01:28.280Z,3.30
2018-07-28T12:03:55.357Z,3.30
2018-07-28T12:06:22.387Z,3.28
2018-07-28T12:08:49.377Z,2.80
2018-07-28T12:11:16.391Z,2.95
2018-07-28T12:13:43.446Z,2.90
2018-07-28T12:16:10.447Z,2.95
2018-07-28T12:18:37.473Z,3.00
2018-07-28T12:21:05.415Z,2.85
2018-07-28T12:23:32.393Z,2.58
2018-07-28T12:25:59.373Z,2.22
2018-07-28T12:28:26.435Z,2.42
2018-07-28T12:30:53.419Z,1.67
2018-07-28T12:33:20.410Z,1.60
2018-07-28T12:35:48.280Z,1.45
2018-07-28T12:38:15.264Z,1.75
2018-07-28T12:40:42.251Z,1.45
2018-07-28T12:43:09.303Z,1.42
2018-07-28T12:45:36.286Z,1.70
2018-07-28T12:48:03.278Z,1.65
2018-07-28T12:50:30.317Z,1.67
2018-07-28T12:52:57.305Z,1.40
2018-07-28T12:58:03.788Z,1.40
2018-07-28T13:00:30.779Z,1.43
2018-07-28T13:02:57.755Z,1.45
2018-07-28T13:05:24.909Z,1.60
2018-07-28T13:07:52.842Z,1.30
2018-07-28T13:10:19.959Z,1.45
2018-07-28T13:12:46.941Z,1.37
2018-07-28T13:15:13.924Z,1.20
2018-07-28T13:17:41.727Z,1.67
2018-07-28T13:20:08.835Z,1.37
2018-07-28T13:22:35.771Z,1.27
2018-07-28T13:25:02.767Z,1.50
2018-07-28T13:27:29.830Z,1.30
2018-07-28T13:29:56.882Z,1.40
2018-07-28T13:32:23.807Z,1.33
2018-07-28T13:34:50.829Z,1.30
2018-07-28T13:37:17.814Z,1.27
2018-07-28T13:39:45.738Z,1.67
2018-07-28T13:42:12.809Z,1.10
2018-07-28T13:44:39.772Z,1.40
2018-07-28T13:47:06.761Z,1.20
2018-07-28T13:49:33.789Z,1.47
2018-07-28T13:52:00.761Z,1.20
2018-07-28T13:54:28.367Z,1.40
2018-07-28T13:56:54.814Z,1.30
2018-07-28T13:59:21.800Z,1.50
2018-07-28T14:01:48.790Z,1.50
2018-07-28T14:04:15.825Z,1.30
2018-07-28T14:06:43.672Z,1.27
2018-07-28T14:09:10.670Z,1.40
2018-07-28T14:11:37.743Z,1.40
2018-07-28T14:16:43.252Z,1.30
2018-07-28T14:19:10.242Z,1.15
2018-07-28T14:21:37.252Z,1.40
2018-07-28T14:24:04.255Z,1.50
2018-07-28T14:26:31.249Z,1.27
2018-07-28T14:28:58.320Z,1.50
2018-07-28T14:31:25.370Z,1.35
2018-07-28T14:33:53.116Z,1.60
2018-07-28T14:36:20.100Z,1.40
2018-07-28T14:38:47.155Z,1.50
2018-07-28T14:41:14.148Z,1.53
2018-07-28T14:43:41.130Z,1.40
2018-07-28T14:46:08.197Z,1.20
2018-07-28T14:48:35.201Z,1.70
2018-07-28T14:51:02.244Z,1.60
2018-07-28T14:53:29.279Z,1.35
2018-07-28T14:55:56.488Z,1.70
2018-07-28T14:58:23.246Z,1.40
2018-07-28T15:00:50.391Z,1.70
2018-07-28T15:03:17.375Z,1.87
2018-07-28T15:05:44.368Z,1.52
2018-07-28T15:08:11.396Z,1.60
2018-07-28T15:10:40.282Z,1.25
2018-07-28T15:13:06.771Z,1.40
2018-07-28T15:15:33.888Z,1.20
2018-07-28T15:18:00.887Z,1.60
2018-07-28T15:20:27.901Z,1.45
2018-07-28T15:22:55.059Z,1.37
2018-07-28T15:25:22.922Z,1.85
2018-07-28T15:27:50.639Z,1.45
2018-07-28T15:30:17.669Z,1.50
2018-07-28T15:32:45.611Z,1.20
2018-07-28T15:37:51.113Z,1.50
2018-07-28T15:40:18.096Z,1.83
2018-07-28T15:42:45.090Z,1.50
2018-07-28T15:45:12.161Z,1.87
2018-07-28T15:47:39.144Z,1.48
2018-07-28T15:50:06.131Z,1.60
2018-07-28T15:52:33.156Z,1.75
2018-07-28T15:55:00.151Z,2.15
2018-07-28T15:57:27.136Z,2.00
2018-07-28T15:59:54.204Z,1.70
2018-07-28T16:02:21.189Z,1.60
2018-07-28T16:04:48.175Z,1.55
2018-07-28T16:07:15.214Z,1.85
2018-07-28T16:12:17.111Z,2.05
2018-07-28T16:14:44.186Z,1.73
2018-07-28T16:17:11.164Z,2.00
2018-07-28T16:19:38.924Z,1.80
2018-07-28T16:22:06.851Z,1.70
2018-07-28T16:24:33.871Z,1.87
2018-07-28T16:27:00.916Z,2.10
2018-07-28T16:29:28.737Z,1.95
2018-07-28T16:31:55.906Z,2.00
2018-07-28T16:34:22.761Z,1.70
2018-07-28T16:36:49.751Z,2.08
2018-07-28T16:39:16.730Z,2.50
2018-07-28T16:41:43.793Z,2.22
2018-07-28T16:44:10.779Z,2.15
2018-07-28T16:46:38.653Z,2.28
2018-07-28T16:49:05.634Z,2.60
2018-07-28T16:51:32.629Z,2.97
2018-07-28T16:53:59.695Z,2.62
2018-07-28T16:56:26.697Z,2.90
2018-07-28T16:58:53.767Z,3.78
2018-07-28T17:01:20.661Z,3.50
2018-07-28T17:03:48.440Z,2.80
2018-07-28T17:06:15.435Z,3.42
2018-07-28T17:08:42.415Z,4.05
2018-07-28T17:11:09.473Z,2.08
2018-07-28T17:13:36.515Z,2.90
2018-07-28T17:16:03.466Z,2.10
2018-07-28T17:18:30.526Z,1.95
2018-07-28T17:20:57.516Z,2.03
2018-07-28T17:23:24.598Z,2.17
2018-07-28T17:25:52.511Z,2.17
2018-07-28T17:28:19.518Z,2.22
2018-07-28T17:33:25.046Z,2.47
2018-07-28T17:35:52.861Z,2.67
2018-07-28T17:38:20.678Z,2.95
2018-07-28T17:40:47.762Z,3.40
2018-07-28T17:43:14.713Z,3.08
2018-07-28T17:45:42.683Z,3.62
2018-07-28T17:48:09.735Z,3.83
2018-07-28T17:50:36.761Z,3.80
2018-07-28T17:53:03.774Z,3.67
2018-07-28T17:55:30.866Z,3.40
2018-07-28T17:57:57.926Z,3.53
2018-07-28T18:00:25.870Z,4.10
2018-07-28T18:02:53.724Z,3.57
2018-07-28T18:05:20.789Z,3.37
2018-07-28T18:07:47.787Z,3.83
2018-07-28T18:10:14.873Z,3.60
2018-07-28T18:12:41.862Z,3.60
2018-07-28T18:15:08.849Z,3.63
2018-07-28T18:17:35.895Z,3.40
2018-07-28T18:20:03.907Z,3.67
2018-07-28T18:22:30.880Z,3.27
2018-07-28T18:24:57.935Z,3.37
2018-07-28T18:27:24.926Z,2.63
2018-07-28T18:29:51.903Z,3.60
2018-07-28T18:32:18.961Z,3.53
2018-07-28T18:34:45.966Z,3.67
2018-07-28T18:37:13.014Z,4.10
2018-07-28T18:39:39.997Z,3.37
2018-07-28T18:42:06.984Z,3.40
2018-07-28T18:44:33.986Z,3.10
2018-07-28T18:47:01.055Z,3.20
2018-07-28T18:52:08.579Z,3.53
2018-07-28T18:54:35.567Z,3.37
2018-07-28T18:57:02.655Z,4.10
2018-07-28T18:59:29.737Z,3.77
2018-07-28T19:01:56.746Z,3.13
2018-07-28T19:07:01.900Z,3.20
2018-07-28T19:09:28.907Z,3.53
2018-07-28T19:11:56.079Z,3.43
2018-07-28T19:14:23.094Z,3.93
2018-07-28T19:16:50.086Z,3.10
2018-07-28T19:19:17.145Z,3.57
2018-07-28T19:21:44.141Z,4.13
2018-07-28T19:24:11.138Z,4.17
2018-07-28T19:26:38.129Z,3.60
2018-07-28T19:29:05.277Z,3.60
2018-07-28T19:31:32.298Z,3.07
2018-07-28T19:33:59.417Z,3.63
2018-07-28T19:36:27.048Z,3.07
2018-07-28T19:38:54.076Z,4.20
2018-07-28T19:41:21.123Z,3.20
2018-07-28T19:43:48.425Z,3.07
2018-07-28T19:46:15.497Z,3.47
2018-07-28T19:48:42.550Z,3.40
2018-07-28T19:51:09.748Z,3.43
2018-07-28T19:53:36.835Z,3.13
2018-07-28T19:56:03.989Z,3.17
2018-07-28T19:58:31.242Z,3.53
2018-07-28T20:00:58.319Z,3.80
2018-07-28T20:03:25.448Z,3.87
2018-07-28T20:05:53.613Z,3.67
2018-07-28T20:08:20.703Z,3.00
2018-07-28T20:10:48.294Z,3.47
2018-07-28T20:13:15.268Z,3.33
2018-07-28T20:15:42.281Z,3.67
2018-07-28T20:18:09.418Z,3.23
2018-07-28T20:20:36.629Z,3.53
2018-07-28T20:23:03.656Z,3.77
2018-07-28T20:25:30.866Z,3.50
2018-07-28T20:30:36.557Z,9.93
2018-07-28T20:33:03.636Z,9.33
2018-07-28T20:35:30.649Z,7.10
2018-07-28T20:37:57.767Z,6.67
2018-07-28T20:40:24.824Z,4.27
2018-07-28T20:42:51.836Z,4.10
2018-07-28T20:45:19.065Z,3.80
2018-07-28T20:47:46.291Z,3.17
2018-07-28T20:50:13.331Z,3.50
2018-07-28T20:52:40.454Z,3.83
2018-07-28T20:55:07.461Z,3.60
2018-07-28T20:57:34.500Z,3.90
2018-07-28T21:00:01.664Z,3.70
2018-07-28T21:05:07.830Z,3.77
2018-07-28T21:10:07.256Z,3.63
2018-07-28T21:12:34.717Z,4.13
2018-07-28T21:15:01.695Z,4.00
2018-07-28T21:17:28.762Z,3.53
2018-07-28T21:19:55.939Z,3.90
2018-07-28T21:22:23.959Z,3.97
2018-07-28T21:24:50.365Z,3.90
2018-07-28T21:27:17.347Z,4.43
2018-07-28T21:29:44.336Z,3.37
2018-07-28T21:32:11.359Z,3.40
2018-07-28T21:34:38.465Z,3.57
2018-07-28T21:37:05.514Z,3.47
2018-07-28T21:39:32.547Z,3.60
2018-07-28T21:41:59.521Z,3.23
2018-07-28T21:44:27.958Z,3.80
2018-07-28T21:46:53.675Z,3.87
2018-07-28T21:49:20.673Z,3.60
2018-07-28T21:51:47.657Z,4.27
2018-07-28T21:54:14.718Z,3.60
2018-07-28T21:56:41.709Z,3.53
2018-07-28T21:59:08.698Z,4.37
2018-07-28T22:01:35.715Z,3.90
2018-07-28T22:04:02.705Z,3.87
2018-07-28T22:06:29.690Z,3.93
2018-07-28T22:08:56.746Z,3.53
2018-07-28T22:11:23.727Z,4.40
2018-07-28T22:16:30.484Z,7.27
2018-07-28T22:18:57.475Z,5.20
2018-07-28T22:21:24.457Z,4.80
2018-07-28T22:23:51.573Z,4.90
2018-07-28T22:26:18.574Z,5.10
2018-07-28T22:28:45.553Z,4.20
2018-07-28T22:31:12.626Z,4.33
2018-07-28T22:33:39.632Z,4.40
2018-07-28T22:36:06.634Z,4.30
2018-07-28T22:38:33.660Z,4.50
2018-07-28T22:41:00.647Z,4.17
2018-07-28T22:43:27.633Z,4.07
2018-07-28T22:45:54.682Z,3.70
2018-07-28T22:48:21.670Z,3.67
2018-07-28T22:50:48.696Z,3.60
2018-07-28T22:53:15.861Z,4.13
2018-07-28T22:55:42.860Z,4.30
2018-07-28T22:58:09.844Z,4.37
2018-07-28T23:00:36.979Z,4.23
2018-07-28T23:03:04.042Z,4.10
2018-07-28T23:08:02.219Z,4.20
2018-07-28T23:10:29.195Z,4.30
2018-07-28T23:12:56.184Z,4.57
2018-07-28T23:15:23.214Z,4.37
2018-07-28T23:17:50.204Z,4.13
2018-07-28T23:20:17.185Z,3.97
2018-07-28T23:22:44.237Z,3.90
2018-07-28T23:25:11.234Z,3.90
2018-07-28T23:27:38.376Z,3.90
2018-07-28T23:30:05.484Z,3.90
2018-07-28T23:32:32.482Z,3.90
2018-07-28T23:37:38.065Z,4.80
2018-07-28T23:40:05.049Z,4.53
2018-07-28T23:42:32.034Z,4.60
2018-07-28T23:44:59.060Z,4.50
2018-07-28T23:47:26.064Z,4.60
2018-07-28T23:49:53.046Z,4.27
2018-07-28T23:52:20.077Z,4.20
2018-07-28T23:54:47.065Z,4.97
2018-07-28T23:57:14.050Z,5.03
2018-07-28T23:59:41.077Z,4.40
